Aeroporto :
LOGIN :

Iscrizione | Disclaimer

   EN    FR    IT 

 










Sommario :    VFR   VFR Marginale   IFR   IFR Intensivo   IFR Molto Intensivo
Visibilità : 
Base nubi : 
>= 8 km
>= 3000ft
5 / 8 km
1000 / 3000 ft
1500m / 5 km
500 / 1000 ft
800 / 1500m
200 / 500 ft
< 800m
< 200 ft
Simboli :   Temporali  Nebbia  Neve Forte  Precipitazioni Forti  Vento > 20 kt
SIGMETs :   Varie  Temporali  Ghiacco  Turbolenza  Onda orograficha  Ceneri Vulcaniche






- Altitudine del aeroporto : 93 ft
- Codice IATA : XRY


LEJR - Jerez

ULTIMO METAR :
  • 281530Z 24006KT 170V320 CAVOK 28/15 Q1020

METARs OBSOLETI :
  • 281500Z 23006KT 180V290 CAVOK 28/15 Q1020
  • 281430Z 24007KT 190V300 CAVOK 28/16 Q1020
  • 281400Z 26007KT 190V310 CAVOK 28/16 Q1020
  • 281330Z 25009KT 200V290 CAVOK 28/16 Q1020
  • 281300Z 23009KT 200V270 CAVOK 28/16 Q1020

TAF TAF LEJR
Valido dal 28 a 15 ore il 29 a 15 ore UTC


281400Z 2815/2915 25010KT CAVOK TX33/2914Z TN14/2906Z
BECMG 2820/2823 VRB02KT



MetMap, La meteo Aeronautica in un colpo d'occhio ! - Copyright ORBIFLY Dicembre 2007 - Disclaimer

ORBIFLY MET'MAP TEAM :

Programmazione e sviluppo : Alexandra Zaïnal
Concezione : Baudouin d'Aumeries
Aiuto per la programmazione : Marc-Olivier Méhu
Supporto tecnico e logistico : Manuel Goepfert
Aiuto per la traduzione : Arnaldo La Scala

Contatto : metmap@orbifly.com




FONTI E CREDITI :

   NOAA